sensor_id;sensor_type;location;lat;lon;timestamp;P1;durP1;ratioP1;P2;durP2;ratioP2
39996;SDS011;25688;52.338;21.072;2022-12-18T01:57:04;60.85;;;22.23;;
39996;SDS011;25688;52.338;21.072;2022-12-18T05:05:00;39.03;;;13.80;;
39996;SDS011;25688;52.338;21.072;2022-12-18T05:07:27;28.25;;;9.88;;
39996;SDS011;25688;52.338;21.072;2022-12-18T12:53:37;71.85;;;26.95;;
39996;SDS011;25688;52.338;21.072;2022-12-18T14:02:40;84.75;;;33.70;;
39996;SDS011;25688;52.338;21.072;2022-12-18T14:29:29;84.45;;;31.20;;
39996;SDS011;25688;52.338;21.072;2022-12-18T14:42:41;81.07;;;27.58;;
39996;SDS011;25688;52.338;21.072;2022-12-18T15:21:47;88.25;;;30.75;;
39996;SDS011;25688;52.338;21.072;2022-12-18T15:24:21;83.85;;;29.15;;
39996;SDS011;25688;52.338;21.072;2022-12-18T15:26:53;103.47;;;30.02;;
39996;SDS011;25688;52.338;21.072;2022-12-18T15:29:20;88.55;;;29.58;;
39996;SDS011;25688;52.338;21.072;2022-12-18T15:32:00;89.90;;;31.85;;
39996;SDS011;25688;52.338;21.072;2022-12-18T15:34:27;92.95;;;31.38;;
39996;SDS011;25688;52.338;21.072;2022-12-18T15:36:55;87.07;;;28.13;;
39996;SDS011;25688;52.338;21.072;2022-12-18T15:39:20;91.97;;;29.58;;
39996;SDS011;25688;52.338;21.072;2022-12-18T15:41:46;84.80;;;28.65;;
39996;SDS011;25688;52.338;21.072;2022-12-18T15:44:31;83.35;;;30.17;;
39996;SDS011;25688;52.338;21.072;2022-12-18T15:46:57;87.25;;;28.13;;
39996;SDS011;25688;52.338;21.072;2022-12-18T15:49:23;87.70;;;30.30;;
39996;SDS011;25688;52.338;21.072;2022-12-18T15:51:50;94.25;;;30.95;;
39996;SDS011;25688;52.338;21.072;2022-12-18T15:54:18;91.35;;;31.08;;
39996;SDS011;25688;52.338;21.072;2022-12-18T15:57:08;86.85;;;27.98;;
39996;SDS011;25688;52.338;21.072;2022-12-18T15:59:50;84.95;;;27.63;;
39996;SDS011;25688;52.338;21.072;2022-12-18T16:02:18;88.78;;;28.75;;
39996;SDS011;25688;52.338;21.072;2022-12-18T16:04:44;92.93;;;30.20;;
39996;SDS011;25688;52.338;21.072;2022-12-18T16:07:13;76.28;;;26.80;;
39996;SDS011;25688;52.338;21.072;2022-12-18T16:09:40;72.72;;;25.13;;
39996;SDS011;25688;52.338;21.072;2022-12-18T16:12:14;77.50;;;27.08;;
39996;SDS011;25688;52.338;21.072;2022-12-18T16:14:42;80.38;;;27.30;;
39996;SDS011;25688;52.338;21.072;2022-12-18T16:17:09;87.57;;;30.00;;
39996;SDS011;25688;52.338;21.072;2022-12-18T16:19:36;77.28;;;27.25;;
39996;SDS011;25688;52.338;21.072;2022-12-18T16:22:03;80.95;;;28.35;;
39996;SDS011;25688;52.338;21.072;2022-12-18T16:24:30;79.25;;;27.45;;
39996;SDS011;25688;52.338;21.072;2022-12-18T16:26:58;88.93;;;28.40;;
39996;SDS011;25688;52.338;21.072;2022-12-18T16:29:26;78.72;;;28.45;;
39996;SDS011;25688;52.338;21.072;2022-12-18T16:31:55;87.68;;;28.65;;
39996;SDS011;25688;52.338;21.072;2022-12-18T16:34:23;84.30;;;31.48;;
39996;SDS011;25688;52.338;21.072;2022-12-18T16:36:55;88.10;;;31.20;;
39996;SDS011;25688;52.338;21.072;2022-12-18T16:39:21;86.43;;;29.23;;
39996;SDS011;25688;52.338;21.072;2022-12-18T16:41:47;93.18;;;30.90;;
39996;SDS011;25688;52.338;21.072;2022-12-18T16:44:13;89.75;;;28.63;;
39996;SDS011;25688;52.338;21.072;2022-12-18T16:46:39;86.57;;;31.23;;
39996;SDS011;25688;52.338;21.072;2022-12-18T16:49:13;91.45;;;31.15;;
39996;SDS011;25688;52.338;21.072;2022-12-18T16:51:40;78.60;;;31.02;;
39996;SDS011;25688;52.338;21.072;2022-12-18T16:54:07;90.22;;;30.15;;
39996;SDS011;25688;52.338;21.072;2022-12-18T16:56:34;89.25;;;32.15;;
39996;SDS011;25688;52.338;21.072;2022-12-18T16:59:00;92.28;;;31.38;;
39996;SDS011;25688;52.338;21.072;2022-12-18T17:01:28;82.82;;;30.85;;
39996;SDS011;25688;52.338;21.072;2022-12-18T17:03:57;80.40;;;29.50;;
39996;SDS011;25688;52.338;21.072;2022-12-18T17:06:26;93.15;;;32.63;;
39996;SDS011;25688;52.338;21.072;2022-12-18T17:08:54;90.32;;;32.30;;
39996;SDS011;25688;52.338;21.072;2022-12-18T17:11:32;88.75;;;33.03;;
39996;SDS011;25688;52.338;21.072;2022-12-18T17:13:59;89.00;;;31.08;;
39996;SDS011;25688;52.338;21.072;2022-12-18T17:16:29;92.13;;;33.08;;
39996;SDS011;25688;52.338;21.072;2022-12-18T17:18:57;88.97;;;31.77;;
39996;SDS011;25688;52.338;21.072;2022-12-18T17:21:23;90.88;;;32.67;;
39996;SDS011;25688;52.338;21.072;2022-12-18T17:23:49;85.43;;;30.42;;
39996;SDS011;25688;52.338;21.072;2022-12-18T17:26:15;79.18;;;28.92;;
39996;SDS011;25688;52.338;21.072;2022-12-18T17:28:41;83.97;;;28.17;;
39996;SDS011;25688;52.338;21.072;2022-12-18T17:31:14;66.97;;;26.77;;
39996;SDS011;25688;52.338;21.072;2022-12-18T17:33:42;70.47;;;25.33;;
39996;SDS011;25688;52.338;21.072;2022-12-18T17:36:08;69.78;;;26.52;;
39996;SDS011;25688;52.338;21.072;2022-12-18T17:38:35;75.40;;;26.27;;
39996;SDS011;25688;52.338;21.072;2022-12-18T17:41:04;71.45;;;26.52;;
39996;SDS011;25688;52.338;21.072;2022-12-18T17:43:31;67.70;;;26.40;;
39996;SDS011;25688;52.338;21.072;2022-12-18T17:46:03;77.60;;;24.58;;
39996;SDS011;25688;52.338;21.072;2022-12-18T17:48:30;70.38;;;26.70;;
39996;SDS011;25688;52.338;21.072;2022-12-18T17:51:00;73.75;;;25.88;;
39996;SDS011;25688;52.338;21.072;2022-12-18T17:53:27;72.93;;;26.90;;
39996;SDS011;25688;52.338;21.072;2022-12-18T17:55:53;73.07;;;25.73;;
39996;SDS011;25688;52.338;21.072;2022-12-18T17:58:25;76.70;;;25.73;;
39996;SDS011;25688;52.338;21.072;2022-12-18T18:00:53;72.10;;;28.02;;
39996;SDS011;25688;52.338;21.072;2022-12-18T18:03:18;66.97;;;26.23;;
39996;SDS011;25688;52.338;21.072;2022-12-18T18:05:44;76.13;;;26.50;;
39996;SDS011;25688;52.338;21.072;2022-12-18T18:08:10;67.43;;;25.95;;
39996;SDS011;25688;52.338;21.072;2022-12-18T18:10:37;74.15;;;28.08;;
39996;SDS011;25688;52.338;21.072;2022-12-18T18:13:13;70.25;;;26.80;;
39996;SDS011;25688;52.338;21.072;2022-12-18T18:16:05;76.18;;;27.08;;
39996;SDS011;25688;52.338;21.072;2022-12-18T18:18:31;70.82;;;24.52;;
39996;SDS011;25688;52.338;21.072;2022-12-18T18:20:57;65.97;;;24.02;;
39996;SDS011;25688;52.338;21.072;2022-12-18T18:23:26;66.00;;;24.75;;
39996;SDS011;25688;52.338;21.072;2022-12-18T22:04:36;53.75;;;19.23;;
39996;SDS011;25688;52.338;21.072;2022-12-18T22:07:03;52.70;;;18.73;;
39996;SDS011;25688;52.338;21.072;2022-12-18T22:09:30;56.58;;;20.13;;
39996;SDS011;25688;52.338;21.072;2022-12-18T22:11:56;54.13;;;18.58;;
39996;SDS011;25688;52.338;21.072;2022-12-18T22:14:22;59.53;;;19.63;;
39996;SDS011;25688;52.338;21.072;2022-12-18T22:16:49;57.78;;;20.63;;
39996;SDS011;25688;52.338;21.072;2022-12-18T22:19:16;57.97;;;21.25;;
39996;SDS011;25688;52.338;21.072;2022-12-18T22:55:37;55.63;;;19.55;;
